Burriana, Spain
Current Conditions -  °F | °C
As of 11:00 PM on Saturday 25 Oct 2014 (Local Time) from LEBT Reporting Station
Clear Clear  
Wind Chill: 61°   Ceiling: Unl
Heat Index: 61°   Visibility: 6mi
Dew Point: 46°   Wind: 3mph
Humidity: 59%   Direction: 350°N
Pressure: 30.15"   Gusts: NA
Location:  39.89°N, 0.08°W
Report Text: LEBT 252100Z AUTO 35003KT 300V010 CAVOK 16/08 Q1021
Loading
Personal Weather Stations






























Interactive Weather Map
Tropical Storm Tracking
New forecast layout! Learn more

10-Day Weather Forecast

Advertisements
Track Severe Weather on mobile